createdAt,value
2022-10-28T00:02:09.322Z,11.93
2022-10-28T00:04:42.228Z,10.23
2022-10-28T00:07:14.721Z,11.38
2022-10-28T00:09:47.552Z,10.35
2022-10-28T00:12:20.051Z,10.65
2022-10-28T00:14:52.902Z,10.52
2022-10-28T00:17:25.444Z,10.88
2022-10-28T00:19:58.227Z,11.23
2022-10-28T00:22:30.677Z,12.82
2022-10-28T00:25:04.289Z,11.63
2022-10-28T00:27:36.906Z,11.10
2022-10-28T00:30:10.104Z,11.02
2022-10-28T00:32:42.562Z,10.52
2022-10-28T00:35:15.526Z,12.73
2022-10-28T00:37:47.998Z,11.50
2022-10-28T00:40:20.759Z,11.20
2022-10-28T00:42:53.669Z,10.10
2022-10-28T00:45:26.877Z,11.82
2022-10-28T00:48:01.920Z,10.60
2022-10-28T00:51:00.849Z,9.40
2022-10-28T00:53:33.824Z,13.85
2022-10-28T00:56:08.960Z,11.55
2022-10-28T00:58:42.100Z,12.68
2022-10-28T01:01:15.009Z,12.15
2022-10-28T01:03:47.685Z,10.90
2022-10-28T01:06:21.907Z,10.43
2022-10-28T01:08:57.566Z,11.73
2022-10-28T01:11:41.902Z,10.68
2022-10-28T01:14:14.347Z,11.20
2022-10-28T01:16:49.961Z,11.65
2022-10-28T01:19:22.348Z,10.35
2022-10-28T01:22:13.294Z,9.95
2022-10-28T01:25:04.175Z,10.00
2022-10-28T01:27:36.917Z,10.53
2022-10-28T01:30:17.273Z,10.75
2022-10-28T01:33:08.432Z,9.30
2022-10-28T01:35:53.167Z,8.32
2022-10-28T01:38:39.396Z,9.52
2022-10-28T01:41:15.197Z,10.30
2022-10-28T01:43:54.093Z,10.75
2022-10-28T01:46:31.568Z,9.35
2022-10-28T01:49:09.117Z,8.38
2022-10-28T01:51:44.363Z,10.27
2022-10-28T01:54:19.527Z,9.20
2022-10-28T01:56:53.066Z,9.52
2022-10-28T01:59:28.196Z,8.00
2022-10-28T02:02:00.769Z,9.90
2022-10-28T02:04:34.051Z,9.27
2022-10-28T02:07:06.742Z,10.32
2022-10-28T02:09:39.750Z,8.88
2022-10-28T02:12:12.195Z,9.20
2022-10-28T02:15:23.560Z,8.77
2022-10-28T02:17:56.437Z,9.07
2022-10-28T02:20:55.884Z,8.68
2022-10-28T02:23:34.131Z,8.60
2022-10-28T02:26:24.347Z,10.88
2022-10-28T02:29:00.568Z,8.77
2022-10-28T02:31:41.156Z,9.10
2022-10-28T02:34:18.060Z,9.77
2022-10-28T02:36:52.778Z,9.68
2022-10-28T02:39:28.513Z,11.23
2022-10-28T02:42:03.088Z,8.68
2022-10-28T02:44:37.379Z,9.40
2022-10-28T02:47:13.729Z,10.60
2022-10-28T02:49:48.027Z,10.43
2022-10-28T02:52:22.340Z,7.75
2022-10-28T02:54:55.912Z,10.15
2022-10-28T02:57:32.769Z,9.13
2022-10-28T03:00:07.010Z,8.18
2022-10-28T03:02:40.677Z,10.68
2022-10-28T03:05:13.272Z,8.43
2022-10-28T03:07:46.164Z,9.80
2022-10-28T03:10:18.662Z,10.30
2022-10-28T03:12:51.534Z,8.98
2022-10-28T03:15:24.153Z,10.52
2022-10-28T03:17:57.169Z,9.40
2022-10-28T03:20:29.685Z,8.23
2022-10-28T03:23:02.812Z,7.93
2022-10-28T03:25:35.647Z,9.73
2022-10-28T03:28:08.650Z,8.95
2022-10-28T03:30:41.503Z,9.27
2022-10-28T03:33:14.474Z,10.77
2022-10-28T03:35:47.030Z,9.15
2022-10-28T03:38:20.246Z,8.57
2022-10-28T03:40:52.744Z,9.25
2022-10-28T03:43:25.562Z,8.68
2022-10-28T03:45:58.017Z,10.10
2022-10-28T03:48:30.852Z,9.38
2022-10-28T03:51:03.528Z,9.18
2022-10-28T03:53:36.358Z,8.23
2022-10-28T03:56:09.032Z,8.52
2022-10-28T03:58:41.988Z,9.88
2022-10-28T04:01:14.725Z,8.00
2022-10-28T04:03:47.679Z,9.05
2022-10-28T04:06:20.373Z,9.70
2022-10-28T04:08:53.495Z,7.75
2022-10-28T04:11:25.988Z,10.15
2022-10-28T04:13:58.821Z,9.38
2022-10-28T04:16:31.497Z,7.90
2022-10-28T04:19:04.336Z,8.70
2022-10-28T04:21:36.818Z,8.50
2022-10-28T04:24:10.009Z,6.88
2022-10-28T04:26:42.721Z,7.47
2022-10-28T04:29:15.767Z,9.23
2022-10-28T04:31:51.348Z,6.82
2022-10-28T04:34:25.174Z,7.90
2022-10-28T04:36:57.739Z,8.60
2022-10-28T04:39:30.511Z,7.45
2022-10-28T04:42:03.501Z,8.68
2022-10-28T04:44:36.305Z,8.98
2022-10-28T04:47:09.072Z,8.50
2022-10-28T04:49:41.876Z,8.52
2022-10-28T04:52:15.863Z,8.32
2022-10-28T04:54:48.954Z,9.02
2022-10-28T04:57:21.688Z,8.38
2022-10-28T04:59:54.628Z,9.23
2022-10-28T05:02:27.227Z,8.73
2022-10-28T05:05:03.859Z,8.57
2022-10-28T05:07:36.456Z,9.48
2022-10-28T05:10:09.563Z,9.90
2022-10-28T05:12:42.392Z,8.02
2022-10-28T05:15:15.606Z,7.65
2022-10-28T05:17:48.418Z,8.23
2022-10-28T05:20:21.385Z,7.85
2022-10-28T05:22:55.344Z,8.02
2022-10-28T05:25:28.546Z,8.23
2022-10-28T05:28:01.722Z,11.73
2022-10-28T05:30:34.673Z,9.30
2022-10-28T05:33:07.280Z,7.55
2022-10-28T05:35:40.572Z,6.60
2022-10-28T05:38:13.092Z,10.10
2022-10-28T05:40:45.840Z,8.02
2022-10-28T05:43:18.500Z,9.00
2022-10-28T05:45:57.704Z,9.80
2022-10-28T05:48:30.175Z,8.90
2022-10-28T05:51:03.049Z,8.75
2022-10-28T05:53:35.654Z,7.35
2022-10-28T05:56:09.132Z,7.10
2022-10-28T05:58:41.750Z,6.93
2022-10-28T06:01:14.726Z,7.15
2022-10-28T06:03:47.466Z,7.40
2022-10-28T06:06:20.468Z,16.55
2022-10-28T06:08:53.096Z,8.95
2022-10-28T06:11:24.446Z,6.93
2022-10-28T06:13:56.915Z,9.40
2022-10-28T06:16:29.868Z,7.10
2022-10-28T06:19:02.314Z,7.50
2022-10-28T06:21:35.152Z,5.90
2022-10-28T06:24:12.111Z,7.90
2022-10-28T06:26:45.200Z,6.07
2022-10-28T06:29:18.352Z,9.25
2022-10-28T06:31:51.293Z,7.38
2022-10-28T06:34:23.868Z,6.15
2022-10-28T06:36:56.832Z,6.57
2022-10-28T06:39:29.259Z,8.30
2022-10-28T06:42:02.569Z,6.93
2022-10-28T06:44:35.064Z,10.35
2022-10-28T06:47:09.590Z,7.60
2022-10-28T06:49:42.056Z,7.10
2022-10-28T06:52:14.895Z,7.38
2022-10-28T06:54:47.456Z,6.22
2022-10-28T06:57:20.341Z,6.97
2022-10-28T06:59:53.567Z,5.68
2022-10-28T07:02:29.829Z,7.75
2022-10-28T07:05:02.617Z,5.90
2022-10-28T07:07:40.349Z,6.72
2022-10-28T07:10:13.281Z,6.05
2022-10-28T07:12:46.006Z,6.00
2022-10-28T07:15:18.822Z,5.28
2022-10-28T07:17:55.264Z,5.93
2022-10-28T07:20:29.680Z,5.22
2022-10-28T07:23:02.790Z,5.72
2022-10-28T07:25:35.702Z,5.03
2022-10-28T07:28:08.385Z,5.13
2022-10-28T07:30:41.670Z,6.25
2022-10-28T07:33:14.483Z,4.47
2022-10-28T07:35:47.409Z,5.57
2022-10-28T07:38:19.933Z,5.07
2022-10-28T07:40:52.727Z,5.00
2022-10-28T07:43:25.267Z,6.25
2022-10-28T07:45:58.589Z,4.57
2022-10-28T07:48:31.054Z,5.70
2022-10-28T07:51:04.902Z,6.32
2022-10-28T07:53:38.056Z,6.88
2022-10-28T07:56:13.913Z,5.68
2022-10-28T07:58:46.457Z,4.95
2022-10-28T08:01:20.063Z,5.05
2022-10-28T08:03:52.747Z,5.63
2022-10-28T08:06:25.692Z,4.72
2022-10-28T08:08:58.186Z,4.97
2022-10-28T08:11:30.942Z,4.82
2022-10-28T08:14:03.723Z,4.47
2022-10-28T08:16:36.538Z,4.90
2022-10-28T08:19:10.972Z,4.53
2022-10-28T08:21:43.824Z,5.10
2022-10-28T08:24:16.398Z,5.13
2022-10-28T08:26:49.445Z,4.55
2022-10-28T08:29:24.206Z,3.92
2022-10-28T08:32:00.474Z,4.80
2022-10-28T08:34:33.083Z,5.00
2022-10-28T08:37:05.923Z,3.25
2022-10-28T08:39:38.488Z,3.90
2022-10-28T08:42:26.690Z,4.20
2022-10-28T08:45:05.983Z,4.63
2022-10-28T08:47:42.242Z,5.30
2022-10-28T08:50:15.932Z,4.10
2022-10-28T08:52:52.954Z,4.28
2022-10-28T08:55:36.934Z,3.92
2022-10-28T08:58:13.120Z,4.80
2022-10-28T09:00:47.197Z,4.03
2022-10-28T09:03:34.300Z,4.15
2022-10-28T09:06:10.608Z,4.93
2022-10-28T09:08:48.797Z,3.42
2022-10-28T09:11:48.419Z,4.15
2022-10-28T09:14:49.900Z,5.47
2022-10-28T09:17:48.314Z,4.82
2022-10-28T09:21:02.073Z,4.78
2022-10-28T09:23:37.735Z,4.15
2022-10-28T09:26:20.257Z,4.30
2022-10-28T09:29:15.466Z,5.43
2022-10-28T09:31:52.922Z,5.50
2022-10-28T09:34:25.768Z,4.78
2022-10-28T09:37:27.525Z,4.85
2022-10-28T09:40:22.876Z,4.43
2022-10-28T09:42:58.418Z,3.70
2022-10-28T09:45:32.233Z,3.25
2022-10-28T09:48:05.024Z,2.90
2022-10-28T09:50:54.449Z,2.13
2022-10-28T09:53:36.162Z,3.38
2022-10-28T09:56:12.829Z,2.55
2022-10-28T09:58:48.138Z,2.10
2022-10-28T10:01:20.618Z,2.70
2022-10-28T10:04:37.379Z,2.95
2022-10-28T10:07:13.380Z,2.10
2022-10-28T10:09:45.822Z,2.53
2022-10-28T10:12:18.692Z,2.22
2022-10-28T10:14:54.236Z,2.50
2022-10-28T10:17:39.940Z,2.05
2022-10-28T10:20:16.999Z,2.33
2022-10-28T10:23:21.503Z,2.08
2022-10-28T10:25:55.615Z,1.92
2022-10-28T10:28:28.777Z,1.92
2022-10-28T10:31:23.889Z,2.17
2022-10-28T10:34:37.530Z,2.08
2022-10-28T10:37:17.578Z,1.63
2022-10-28T10:40:02.020Z,2.33
2022-10-28T10:42:42.484Z,1.70
2022-10-28T10:45:25.812Z,2.05
2022-10-28T10:48:18.672Z,1.40
2022-10-28T10:51:07.657Z,1.67
2022-10-28T10:53:40.626Z,1.70
2022-10-28T10:56:16.019Z,2.13
2022-10-28T10:58:50.308Z,1.42
2022-10-28T11:01:24.748Z,2.60
2022-10-28T11:04:20.286Z,1.52
2022-10-28T11:06:57.110Z,2.20
2022-10-28T11:09:47.828Z,1.95
2022-10-28T11:12:28.481Z,1.70
2022-10-28T11:15:02.323Z,1.23
2022-10-28T11:17:35.523Z,1.70
2022-10-28T11:20:31.350Z,1.80
2022-10-28T11:23:10.890Z,1.27
2022-10-28T11:25:49.935Z,1.63
2022-10-28T11:28:38.213Z,1.30
2022-10-28T11:31:16.569Z,1.58
2022-10-28T11:33:58.905Z,1.50
2022-10-28T11:36:49.701Z,1.83
2022-10-28T11:39:37.052Z,1.73
2022-10-28T11:42:27.800Z,1.40
2022-10-28T11:45:00.616Z,1.40
2022-10-28T11:47:51.466Z,1.55
2022-10-28T11:50:24.383Z,1.67
2022-10-28T11:52:56.778Z,1.42
2022-10-28T11:55:34.486Z,1.50
2022-10-28T12:01:34.378Z,1.67
2022-10-28T12:04:25.972Z,1.23
2022-10-28T12:07:13.802Z,1.77
2022-10-28T12:09:49.663Z,1.52
2022-10-28T12:12:51.448Z,1.75
2022-10-28T12:15:27.784Z,1.63
2022-10-28T12:18:00.256Z,2.20
2022-10-28T12:20:40.987Z,1.40
2022-10-28T12:23:14.630Z,1.98
2022-10-28T12:25:49.878Z,1.70
2022-10-28T12:28:28.331Z,1.27
2022-10-28T12:31:02.041Z,2.15
2022-10-28T12:33:51.426Z,1.60
2022-10-28T12:36:35.404Z,1.80
2022-10-28T12:39:19.891Z,1.52
2022-10-28T12:41:52.795Z,1.52
2022-10-28T12:44:40.933Z,1.48
2022-10-28T12:47:13.899Z,1.65
2022-10-28T12:50:19.058Z,1.73
2022-10-28T12:53:16.232Z,1.45
2022-10-28T12:55:59.757Z,2.25
2022-10-28T12:58:35.886Z,1.70
2022-10-28T13:01:13.360Z,1.77
2022-10-28T13:03:46.377Z,1.60
2022-10-28T13:06:22.042Z,1.98
2022-10-28T13:09:18.253Z,1.95
2022-10-28T13:11:54.175Z,1.33
2022-10-28T13:14:32.821Z,1.58
2022-10-28T13:17:16.996Z,1.60
2022-10-28T13:19:57.003Z,1.38
2022-10-28T13:22:36.466Z,1.20
2022-10-28T13:25:34.603Z,1.95
2022-10-28T13:28:13.203Z,1.70
2022-10-28T13:31:05.224Z,1.60
2022-10-28T13:33:38.905Z,1.50
2022-10-28T13:36:11.726Z,1.60
2022-10-28T13:38:50.305Z,1.80
2022-10-28T13:41:27.511Z,2.08
2022-10-28T13:44:14.568Z,2.13
2022-10-28T13:47:00.451Z,2.00
2022-10-28T13:50:06.477Z,1.80
2022-10-28T13:55:24.272Z,1.40
2022-10-28T13:58:06.472Z,1.40
2022-10-28T14:00:39.068Z,2.35
2022-10-28T14:03:27.510Z,2.00
2022-10-28T14:06:01.319Z,1.83
2022-10-28T14:08:35.061Z,1.88
2022-10-28T14:11:23.502Z,2.13
2022-10-28T14:14:05.716Z,1.80
2022-10-28T14:16:39.342Z,1.55
2022-10-28T14:19:13.955Z,1.98
2022-10-28T14:21:51.589Z,1.60
2022-10-28T14:24:41.053Z,2.00
2022-10-28T14:27:40.205Z,3.30
2022-10-28T14:30:19.638Z,2.35
2022-10-28T14:32:58.394Z,1.95
2022-10-28T14:35:47.371Z,1.63
2022-10-28T14:38:22.951Z,1.92
2022-10-28T14:41:04.504Z,2.47
2022-10-28T14:43:43.239Z,1.75
2022-10-28T14:46:33.870Z,2.25
2022-10-28T14:49:14.923Z,2.15
2022-10-28T14:51:47.744Z,2.00
2022-10-28T14:54:43.645Z,2.45
2022-10-28T14:57:18.383Z,1.90
2022-10-28T14:59:51.852Z,1.90
2022-10-28T15:02:39.523Z,1.80
2022-10-28T15:05:12.513Z,2.50
2022-10-28T15:08:02.524Z,2.38
2022-10-28T15:10:38.244Z,2.15
2022-10-28T15:13:15.924Z,3.42
2022-10-28T15:15:52.749Z,2.38
2022-10-28T15:18:26.110Z,3.17
2022-10-28T15:21:16.124Z,2.83
2022-10-28T15:24:18.064Z,2.72
2022-10-28T15:26:53.947Z,1.95
2022-10-28T15:29:27.021Z,2.35
2022-10-28T15:32:14.553Z,2.45
2022-10-28T15:34:48.539Z,3.28
2022-10-28T15:37:23.376Z,2.38
2022-10-28T15:40:30.968Z,2.28
2022-10-28T15:43:07.679Z,2.38
2022-10-28T15:45:42.675Z,3.53
2022-10-28T15:48:22.592Z,3.83
2022-10-28T15:51:15.287Z,3.08
2022-10-28T15:54:12.340Z,3.03
2022-10-28T15:56:55.979Z,3.10
2022-10-28T15:59:28.515Z,3.20
2022-10-28T16:02:02.039Z,4.65
2022-10-28T16:04:49.474Z,4.65
2022-10-28T16:07:22.541Z,3.40
2022-10-28T16:09:55.125Z,4.45
2022-10-28T16:12:28.038Z,4.03
2022-10-28T16:15:01.961Z,3.78
2022-10-28T16:17:36.813Z,3.97
2022-10-28T16:20:27.866Z,4.25
2022-10-28T16:23:00.843Z,3.38
2022-10-28T16:25:48.371Z,4.22
2022-10-28T16:28:24.253Z,3.42
2022-10-28T16:30:57.866Z,3.15
2022-10-28T16:33:32.773Z,3.33
2022-10-28T16:36:05.687Z,3.15
2022-10-28T16:38:39.124Z,3.20
2022-10-28T16:41:14.940Z,4.28
2022-10-28T16:44:02.358Z,3.80
2022-10-28T16:49:07.866Z,3.95
2022-10-28T16:51:41.573Z,4.22
2022-10-28T16:54:15.441Z,3.60
2022-10-28T16:56:50.519Z,4.35
2022-10-28T16:59:38.386Z,7.53
2022-10-28T17:02:32.022Z,5.53
2022-10-28T17:05:07.934Z,7.50
2022-10-28T17:07:40.682Z,6.13
2022-10-28T17:10:13.373Z,4.25
2022-10-28T17:12:46.337Z,4.45
2022-10-28T17:15:33.658Z,4.20
2022-10-28T17:18:06.475Z,4.65
2022-10-28T17:20:39.155Z,4.97
2022-10-28T17:23:11.977Z,5.95
2022-10-28T17:25:45.207Z,6.55
2022-10-28T17:28:18.147Z,6.85
2022-10-28T17:30:50.630Z,7.50
2022-10-28T17:33:23.894Z,7.97
2022-10-28T17:36:12.446Z,7.60
2022-10-28T17:38:46.275Z,8.50
2022-10-28T17:41:19.647Z,6.95
2022-10-28T17:43:53.822Z,6.30
2022-10-28T17:46:26.928Z,5.45
2022-10-28T17:48:59.707Z,7.47
2022-10-28T17:51:47.132Z,7.32
2022-10-28T17:54:19.945Z,5.97
2022-10-28T17:57:07.456Z,5.88
2022-10-28T17:59:40.558Z,6.72
2022-10-28T18:02:28.112Z,7.47
2022-10-28T18:05:01.020Z,6.20
2022-10-28T18:07:33.591Z,5.22
2022-10-28T18:10:21.062Z,6.03
2022-10-28T18:12:54.239Z,6.53
2022-10-28T18:15:27.078Z,6.10
2022-10-28T18:17:59.874Z,5.95
2022-10-28T18:20:32.407Z,6.25
2022-10-28T18:23:05.218Z,6.18
2022-10-28T18:26:07.695Z,6.63
2022-10-28T18:28:41.135Z,6.22
2022-10-28T18:31:28.503Z,6.88
2022-10-28T18:34:02.041Z,6.60
2022-10-28T18:36:49.795Z,5.68
2022-10-28T18:39:22.621Z,6.82
2022-10-28T18:41:55.313Z,5.50
2022-10-28T18:44:32.132Z,7.88
2022-10-28T18:47:20.049Z,10.23
2022-10-28T18:49:53.373Z,9.77
2022-10-28T18:52:25.975Z,8.90
2022-10-28T18:55:13.354Z,7.00
2022-10-28T18:58:00.884Z,7.70
2022-10-28T19:00:36.054Z,7.47
2022-10-28T19:03:23.686Z,6.43
2022-10-28T19:06:12.609Z,8.43
2022-10-28T19:08:45.642Z,7.88
2022-10-28T19:11:33.551Z,8.00
2022-10-28T19:14:07.147Z,7.28
2022-10-28T19:16:41.680Z,8.40
2022-10-28T19:19:14.453Z,6.05
2022-10-28T19:21:46.999Z,5.90
2022-10-28T19:24:19.791Z,6.90
2022-10-28T19:26:52.317Z,7.50
2022-10-28T19:29:25.268Z,8.63
2022-10-28T19:31:57.958Z,6.65
2022-10-28T19:34:32.860Z,11.18
2022-10-28T19:37:05.495Z,9.52
2022-10-28T19:39:38.394Z,8.38
2022-10-28T19:42:11.326Z,7.90
2022-10-28T19:44:44.374Z,6.95
2022-10-28T19:47:16.922Z,8.30
2022-10-28T19:50:04.258Z,6.75
2022-10-28T19:52:37.311Z,6.13
2022-10-28T19:55:14.643Z,5.25
2022-10-28T19:57:50.380Z,5.35
2022-10-28T20:00:25.431Z,5.05
2022-10-28T20:02:58.853Z,4.55
2022-10-28T20:05:31.469Z,4.65
2022-10-28T20:08:04.864Z,5.80
2022-10-28T20:10:37.303Z,5.25
2022-10-28T20:13:10.547Z,6.10
2022-10-28T20:15:43.155Z,5.90
2022-10-28T20:18:31.640Z,5.38
2022-10-28T20:21:05.599Z,4.80
2022-10-28T20:23:38.907Z,4.75
2022-10-28T20:26:12.749Z,5.05
2022-10-28T20:28:45.315Z,5.38
2022-10-28T20:31:19.455Z,5.63
2022-10-28T20:33:53.415Z,3.92
2022-10-28T20:36:27.822Z,4.03
2022-10-28T20:39:11.957Z,5.93
2022-10-28T20:41:45.615Z,4.75
2022-10-28T20:44:18.533Z,4.93
2022-10-28T20:47:05.930Z,4.57
2022-10-28T20:49:40.372Z,4.60
2022-10-28T20:52:16.859Z,4.63
2022-10-28T20:54:50.015Z,5.13
2022-10-28T20:57:22.636Z,5.00
2022-10-28T21:00:10.594Z,4.90
2022-10-28T21:02:43.709Z,4.97
2022-10-28T21:05:16.384Z,4.63
2022-10-28T21:07:49.321Z,5.50
2022-10-28T21:10:36.726Z,4.50
2022-10-28T21:13:09.597Z,5.43
2022-10-28T21:15:44.292Z,5.18
2022-10-28T21:18:17.136Z,5.07
2022-10-28T21:20:49.667Z,4.60
